sensor_id;sensor_type;location;lat;lon;timestamp;P1;durP1;ratioP1;P2;durP2;ratioP2
21266;SDS011;10791;53.108;18.326;2022-09-01T00:01:41;3.00;;;1.60;;
21266;SDS011;10791;53.108;18.326;2022-09-01T00:06:46;3.30;;;1.53;;
21266;SDS011;10791;53.108;18.326;2022-09-01T00:11:52;2.67;;;1.53;;
21266;SDS011;10791;53.108;18.326;2022-09-01T00:16:58;2.93;;;1.70;;
21266;SDS011;10791;53.108;18.326;2022-09-01T00:22:04;3.90;;;2.10;;
21266;SDS011;10791;53.108;18.326;2022-09-01T00:27:09;3.03;;;1.60;;
21266;SDS011;10791;53.108;18.326;2022-09-01T00:32:14;4.77;;;2.50;;
21266;SDS011;10791;53.108;18.326;2022-09-01T00:37:17;3.00;;;1.70;;
21266;SDS011;10791;53.108;18.326;2022-09-01T00:42:21;3.23;;;1.87;;
21266;SDS011;10791;53.108;18.326;2022-09-01T00:47:25;4.17;;;1.80;;
21266;SDS011;10791;53.108;18.326;2022-09-01T00:52:36;3.40;;;2.23;;
21266;SDS011;10791;53.108;18.326;2022-09-01T00:57:44;3.87;;;2.57;;
21266;SDS011;10791;53.108;18.326;2022-09-01T01:02:49;4.67;;;2.50;;
21266;SDS011;10791;53.108;18.326;2022-09-01T01:07:59;3.93;;;2.47;;
21266;SDS011;10791;53.108;18.326;2022-09-01T01:13:05;5.30;;;2.60;;
21266;SDS011;10791;53.108;18.326;2022-09-01T01:18:15;4.47;;;2.77;;
21266;SDS011;10791;53.108;18.326;2022-09-01T01:23:35;7.50;;;3.20;;
21266;SDS011;10791;53.108;18.326;2022-09-01T01:28:52;7.07;;;3.40;;
21266;SDS011;10791;53.108;18.326;2022-09-01T01:33:57;3.47;;;2.80;;
21266;SDS011;10791;53.108;18.326;2022-09-01T01:39:03;3.63;;;2.63;;
21266;SDS011;10791;53.108;18.326;2022-09-01T01:44:13;3.83;;;2.83;;
21266;SDS011;10791;53.108;18.326;2022-09-01T01:49:21;5.90;;;3.03;;
21266;SDS011;10791;53.108;18.326;2022-09-01T01:54:27;5.37;;;3.23;;
21266;SDS011;10791;53.108;18.326;2022-09-01T01:59:34;4.13;;;3.03;;
21266;SDS011;10791;53.108;18.326;2022-09-01T02:04:38;4.17;;;2.77;;
21266;SDS011;10791;53.108;18.326;2022-09-01T02:09:42;5.23;;;2.67;;
21266;SDS011;10791;53.108;18.326;2022-09-01T02:14:50;4.43;;;2.90;;
21266;SDS011;10791;53.108;18.326;2022-09-01T02:19:57;3.23;;;2.50;;
21266;SDS011;10791;53.108;18.326;2022-09-01T02:25:01;4.07;;;2.47;;
21266;SDS011;10791;53.108;18.326;2022-09-01T02:30:06;3.03;;;2.50;;
21266;SDS011;10791;53.108;18.326;2022-09-01T02:35:12;4.20;;;3.30;;
21266;SDS011;10791;53.108;18.326;2022-09-01T02:40:18;6.03;;;3.20;;
21266;SDS011;10791;53.108;18.326;2022-09-01T02:45:21;5.17;;;3.10;;
21266;SDS011;10791;53.108;18.326;2022-09-01T02:50:26;5.23;;;3.03;;
21266;SDS011;10791;53.108;18.326;2022-09-01T02:55:31;4.83;;;3.50;;
21266;SDS011;10791;53.108;18.326;2022-09-01T03:00:34;5.50;;;3.30;;
21266;SDS011;10791;53.108;18.326;2022-09-01T03:05:39;3.80;;;3.30;;
21266;SDS011;10791;53.108;18.326;2022-09-01T03:10:43;5.40;;;3.00;;
21266;SDS011;10791;53.108;18.326;2022-09-01T03:15:48;6.47;;;3.53;;
21266;SDS011;10791;53.108;18.326;2022-09-01T03:20:52;5.70;;;2.83;;
21266;SDS011;10791;53.108;18.326;2022-09-01T03:25:56;4.60;;;2.73;;
21266;SDS011;10791;53.108;18.326;2022-09-01T03:31:00;4.17;;;2.90;;
21266;SDS011;10791;53.108;18.326;2022-09-01T03:36:04;6.23;;;3.40;;
21266;SDS011;10791;53.108;18.326;2022-09-01T03:41:17;4.80;;;2.97;;
21266;SDS011;10791;53.108;18.326;2022-09-01T03:46:24;3.90;;;3.10;;
21266;SDS011;10791;53.108;18.326;2022-09-01T03:51:29;4.20;;;3.07;;
21266;SDS011;10791;53.108;18.326;2022-09-01T03:56:35;4.57;;;3.23;;
21266;SDS011;10791;53.108;18.326;2022-09-01T04:01:43;5.10;;;3.80;;
21266;SDS011;10791;53.108;18.326;2022-09-01T04:06:47;4.53;;;3.03;;
21266;SDS011;10791;53.108;18.326;2022-09-01T04:11:51;4.63;;;3.00;;
21266;SDS011;10791;53.108;18.326;2022-09-01T04:16:55;7.20;;;3.53;;
21266;SDS011;10791;53.108;18.326;2022-09-01T04:22:17;4.57;;;3.43;;
21266;SDS011;10791;53.108;18.326;2022-09-01T04:27:22;6.20;;;3.50;;
21266;SDS011;10791;53.108;18.326;2022-09-01T04:32:28;6.23;;;3.40;;
21266;SDS011;10791;53.108;18.326;2022-09-01T04:37:32;4.60;;;3.20;;
21266;SDS011;10791;53.108;18.326;2022-09-01T04:42:38;5.50;;;3.83;;
21266;SDS011;10791;53.108;18.326;2022-09-01T04:47:49;3.83;;;3.40;;
21266;SDS011;10791;53.108;18.326;2022-09-01T04:52:53;6.30;;;3.77;;
21266;SDS011;10791;53.108;18.326;2022-09-01T04:57:59;6.43;;;3.87;;
21266;SDS011;10791;53.108;18.326;2022-09-01T05:03:06;4.73;;;3.20;;
21266;SDS011;10791;53.108;18.326;2022-09-01T05:08:16;6.30;;;3.60;;
21266;SDS011;10791;53.108;18.326;2022-09-01T05:13:25;7.43;;;3.90;;
21266;SDS011;10791;53.108;18.326;2022-09-01T05:18:29;6.03;;;3.80;;
21266;SDS011;10791;53.108;18.326;2022-09-01T05:23:33;6.50;;;4.10;;
21266;SDS011;10791;53.108;18.326;2022-09-01T05:28:39;5.67;;;4.33;;
21266;SDS011;10791;53.108;18.326;2022-09-01T05:33:44;5.70;;;4.07;;
21266;SDS011;10791;53.108;18.326;2022-09-01T05:38:52;6.87;;;4.20;;
21266;SDS011;10791;53.108;18.326;2022-09-01T05:44:02;5.70;;;4.47;;
21266;SDS011;10791;53.108;18.326;2022-09-01T05:49:10;7.33;;;4.10;;
21266;SDS011;10791;53.108;18.326;2022-09-01T05:54:16;7.07;;;4.27;;
21266;SDS011;10791;53.108;18.326;2022-09-01T05:59:24;5.50;;;3.73;;
21266;SDS011;10791;53.108;18.326;2022-09-01T06:04:29;5.80;;;4.13;;
21266;SDS011;10791;53.108;18.326;2022-09-01T06:09:43;4.53;;;3.20;;
21266;SDS011;10791;53.108;18.326;2022-09-01T06:14:48;4.77;;;3.00;;
21266;SDS011;10791;53.108;18.326;2022-09-01T06:19:55;7.33;;;3.73;;
21266;SDS011;10791;53.108;18.326;2022-09-01T06:24:58;7.37;;;3.23;;
21266;SDS011;10791;53.108;18.326;2022-09-01T06:30:04;4.83;;;3.17;;
21266;SDS011;10791;53.108;18.326;2022-09-01T06:35:19;3.60;;;2.00;;
21266;SDS011;10791;53.108;18.326;2022-09-01T06:40:23;3.13;;;1.70;;
21266;SDS011;10791;53.108;18.326;2022-09-01T06:45:27;4.47;;;1.40;;
21266;SDS011;10791;53.108;18.326;2022-09-01T06:50:30;1.90;;;0.90;;
21266;SDS011;10791;53.108;18.326;2022-09-01T06:55:54;1.20;;;0.87;;
21266;SDS011;10791;53.108;18.326;2022-09-01T07:00:57;1.73;;;0.90;;
21266;SDS011;10791;53.108;18.326;2022-09-01T07:06:03;1.37;;;0.70;;
21266;SDS011;10791;53.108;18.326;2022-09-01T07:11:19;2.17;;;0.80;;
21266;SDS011;10791;53.108;18.326;2022-09-01T07:16:51;1.70;;;0.73;;
21266;SDS011;10791;53.108;18.326;2022-09-01T07:22:15;3.67;;;0.90;;
21266;SDS011;10791;53.108;18.326;2022-09-01T07:27:39;1.13;;;0.70;;
21266;SDS011;10791;53.108;18.326;2022-09-01T07:32:50;2.20;;;0.50;;
21266;SDS011;10791;53.108;18.326;2022-09-01T07:38:14;2.83;;;0.70;;
21266;SDS011;10791;53.108;18.326;2022-09-01T07:43:42;1.33;;;0.50;;
21266;SDS011;10791;53.108;18.326;2022-09-01T07:48:46;3.17;;;1.20;;
21266;SDS011;10791;53.108;18.326;2022-09-01T07:54:09;1.87;;;0.97;;
21266;SDS011;10791;53.108;18.326;2022-09-01T07:59:15;1.80;;;0.70;;
21266;SDS011;10791;53.108;18.326;2022-09-01T08:04:19;3.78;;;0.47;;
21266;SDS011;10791;53.108;18.326;2022-09-01T08:09:27;20.05;;;1.33;;
21266;SDS011;10791;53.108;18.326;2022-09-01T08:14:44;0.82;;;0.40;;
21266;SDS011;10791;53.108;18.326;2022-09-01T08:19:48;2.55;;;0.70;;
21266;SDS011;10791;53.108;18.326;2022-09-01T08:24:52;1.92;;;0.30;;
21266;SDS011;10791;53.108;18.326;2022-09-01T08:29:56;0.70;;;0.40;;
21266;SDS011;10791;53.108;18.326;2022-09-01T08:35:00;2.10;;;0.20;;
21266;SDS011;10791;53.108;18.326;2022-09-01T08:40:06;0.45;;;0.35;;
21266;SDS011;10791;53.108;18.326;2022-09-01T08:45:21;2.05;;;0.20;;
21266;SDS011;10791;53.108;18.326;2022-09-01T08:50:30;1.85;;;0.47;;
21266;SDS011;10791;53.108;18.326;2022-09-01T08:55:41;1.38;;;0.40;;
21266;SDS011;10791;53.108;18.326;2022-09-01T09:00:49;5.80;;;0.40;;
21266;SDS011;10791;53.108;18.326;2022-09-01T09:06:16;2.67;;;0.30;;
21266;SDS011;10791;53.108;18.326;2022-09-01T09:16:53;0.98;;;0.50;;
21266;SDS011;10791;53.108;18.326;2022-09-01T09:21:58;0.52;;;0.30;;
21266;SDS011;10791;53.108;18.326;2022-09-01T09:27:06;0.50;;;0.25;;
21266;SDS011;10791;53.108;18.326;2022-09-01T09:32:11;0.68;;;0.20;;
21266;SDS011;10791;53.108;18.326;2022-09-01T09:37:35;1.50;;;0.30;;
21266;SDS011;10791;53.108;18.326;2022-09-01T09:42:38;0.40;;;0.28;;
21266;SDS011;10791;53.108;18.326;2022-09-01T09:47:45;0.73;;;0.30;;
21266;SDS011;10791;53.108;18.326;2022-09-01T09:52:49;2.38;;;0.32;;
21266;SDS011;10791;53.108;18.326;2022-09-01T09:57:58;1.65;;;0.52;;
21266;SDS011;10791;53.108;18.326;2022-09-01T10:03:11;1.58;;;0.47;;
21266;SDS011;10791;53.108;18.326;2022-09-01T10:13:38;1.52;;;0.75;;
21266;SDS011;10791;53.108;18.326;2022-09-01T10:18:43;0.73;;;0.40;;
21266;SDS011;10791;53.108;18.326;2022-09-01T10:23:48;3.13;;;0.45;;
21266;SDS011;10791;53.108;18.326;2022-09-01T10:28:54;0.70;;;0.30;;
21266;SDS011;10791;53.108;18.326;2022-09-01T10:34:09;2.20;;;0.40;;
21266;SDS011;10791;53.108;18.326;2022-09-01T10:39:21;1.63;;;0.43;;
21266;SDS011;10791;53.108;18.326;2022-09-01T10:54:52;0.90;;;0.32;;
21266;SDS011;10791;53.108;18.326;2022-09-01T11:16:35;2.25;;;0.45;;
21266;SDS011;10791;53.108;18.326;2022-09-01T11:32:56;0.52;;;0.30;;
21266;SDS011;10791;53.108;18.326;2022-09-01T11:38:08;0.70;;;0.30;;
21266;SDS011;10791;53.108;18.326;2022-09-01T11:43:17;0.80;;;0.30;;
21266;SDS011;10791;53.108;18.326;2022-09-01T11:48:22;1.48;;;0.57;;
21266;SDS011;10791;53.108;18.326;2022-09-01T11:53:29;0.38;;;0.30;;
21266;SDS011;10791;53.108;18.326;2022-09-01T11:58:33;0.75;;;0.50;;
21266;SDS011;10791;53.108;18.326;2022-09-01T12:03:40;1.67;;;0.40;;
21266;SDS011;10791;53.108;18.326;2022-09-01T12:08:52;0.60;;;0.40;;
21266;SDS011;10791;53.108;18.326;2022-09-01T12:14:06;1.00;;;0.50;;
21266;SDS011;10791;53.108;18.326;2022-09-01T12:19:22;1.23;;;0.47;;
21266;SDS011;10791;53.108;18.326;2022-09-01T12:24:29;1.83;;;0.50;;
21266;SDS011;10791;53.108;18.326;2022-09-01T12:29:36;2.53;;;0.35;;
21266;SDS011;10791;53.108;18.326;2022-09-01T12:40:23;0.60;;;0.40;;
21266;SDS011;10791;53.108;18.326;2022-09-01T12:45:36;1.95;;;0.50;;
21266;SDS011;10791;53.108;18.326;2022-09-01T12:50:42;2.95;;;0.30;;
21266;SDS011;10791;53.108;18.326;2022-09-01T12:55:55;0.55;;;0.30;;
21266;SDS011;10791;53.108;18.326;2022-09-01T13:01:05;0.30;;;0.20;;
21266;SDS011;10791;53.108;18.326;2022-09-01T13:06:18;0.43;;;0.20;;
21266;SDS011;10791;53.108;18.326;2022-09-01T13:11:21;0.22;;;0.13;;
21266;SDS011;10791;53.108;18.326;2022-09-01T13:16:25;22.60;;;2.20;;
21266;SDS011;10791;53.108;18.326;2022-09-01T13:21:29;0.70;;;0.20;;
21266;SDS011;10791;53.108;18.326;2022-09-01T13:26:33;1.08;;;0.40;;
21266;SDS011;10791;53.108;18.326;2022-09-01T13:31:38;0.85;;;0.43;;
21266;SDS011;10791;53.108;18.326;2022-09-01T13:37:01;0.55;;;0.35;;
21266;SDS011;10791;53.108;18.326;2022-09-01T13:42:04;1.40;;;0.40;;
21266;SDS011;10791;53.108;18.326;2022-09-01T13:47:12;1.40;;;0.50;;
21266;SDS011;10791;53.108;18.326;2022-09-01T13:52:31;1.42;;;0.47;;
21266;SDS011;10791;53.108;18.326;2022-09-01T13:57:35;0.65;;;0.30;;
21266;SDS011;10791;53.108;18.326;2022-09-01T14:02:40;0.45;;;0.30;;
21266;SDS011;10791;53.108;18.326;2022-09-01T14:07:50;0.95;;;0.40;;
21266;SDS011;10791;53.108;18.326;2022-09-01T14:12:55;1.95;;;0.70;;
21266;SDS011;10791;53.108;18.326;2022-09-01T14:17:59;0.63;;;0.40;;
21266;SDS011;10791;53.108;18.326;2022-09-01T14:23:07;3.75;;;0.45;;
21266;SDS011;10791;53.108;18.326;2022-09-01T14:28:16;1.27;;;0.60;;
21266;SDS011;10791;53.108;18.326;2022-09-01T14:33:22;1.60;;;0.80;;
21266;SDS011;10791;53.108;18.326;2022-09-01T14:38:31;0.93;;;0.50;;
21266;SDS011;10791;53.108;18.326;2022-09-01T14:43:41;3.53;;;0.55;;
21266;SDS011;10791;53.108;18.326;2022-09-01T14:48:45;4.93;;;0.95;;
21266;SDS011;10791;53.108;18.326;2022-09-01T14:53:51;1.27;;;0.60;;
21266;SDS011;10791;53.108;18.326;2022-09-01T14:58:58;1.50;;;0.60;;
21266;SDS011;10791;53.108;18.326;2022-09-01T15:04:04;0.65;;;0.35;;
21266;SDS011;10791;53.108;18.326;2022-09-01T15:09:08;1.45;;;0.60;;
21266;SDS011;10791;53.108;18.326;2022-09-01T15:14:14;1.05;;;0.57;;
21266;SDS011;10791;53.108;18.326;2022-09-01T15:19:19;1.85;;;0.60;;
21266;SDS011;10791;53.108;18.326;2022-09-01T15:24:22;1.73;;;0.82;;
21266;SDS011;10791;53.108;18.326;2022-09-01T15:29:26;1.30;;;0.70;;
21266;SDS011;10791;53.108;18.326;2022-09-01T15:34:35;2.63;;;0.90;;
21266;SDS011;10791;53.108;18.326;2022-09-01T15:39:38;3.75;;;1.10;;
21266;SDS011;10791;53.108;18.326;2022-09-01T15:44:41;1.70;;;0.82;;
21266;SDS011;10791;53.108;18.326;2022-09-01T15:49:50;1.52;;;0.65;;
21266;SDS011;10791;53.108;18.326;2022-09-01T15:54:54;2.42;;;0.93;;
21266;SDS011;10791;53.108;18.326;2022-09-01T15:59:57;2.08;;;0.70;;
21266;SDS011;10791;53.108;18.326;2022-09-01T16:05:01;2.50;;;0.85;;
21266;SDS011;10791;53.108;18.326;2022-09-01T16:10:05;1.88;;;0.60;;
21266;SDS011;10791;53.108;18.326;2022-09-01T16:15:14;1.80;;;0.65;;
21266;SDS011;10791;53.108;18.326;2022-09-01T16:20:21;2.30;;;0.70;;
21266;SDS011;10791;53.108;18.326;2022-09-01T16:25:30;3.00;;;0.80;;
21266;SDS011;10791;53.108;18.326;2022-09-01T16:30:38;1.13;;;0.63;;
21266;SDS011;10791;53.108;18.326;2022-09-01T16:35:47;0.90;;;0.38;;
21266;SDS011;10791;53.108;18.326;2022-09-01T16:46:38;7.13;;;3.25;;
21266;SDS011;10791;53.108;18.326;2022-09-01T16:52:26;19.50;;;4.00;;
21266;SDS011;10791;53.108;18.326;2022-09-01T17:07:58;4.17;;;1.77;;
21266;SDS011;10791;53.108;18.326;2022-09-01T17:13:35;7.97;;;1.60;;
21266;SDS011;10791;53.108;18.326;2022-09-01T17:18:44;5.30;;;2.10;;
21266;SDS011;10791;53.108;18.326;2022-09-01T17:29:10;3.67;;;1.10;;
21266;SDS011;10791;53.108;18.326;2022-09-01T17:34:49;5.00;;;1.97;;
21266;SDS011;10791;53.108;18.326;2022-09-01T17:40:14;7.47;;;2.17;;
21266;SDS011;10791;53.108;18.326;2022-09-01T17:45:38;9.73;;;1.87;;
21266;SDS011;10791;53.108;18.326;2022-09-01T17:51:00;8.03;;;2.60;;
21266;SDS011;10791;53.108;18.326;2022-09-01T17:56:19;4.70;;;1.40;;
21266;SDS011;10791;53.108;18.326;2022-09-01T18:12:32;2.10;;;1.53;;
21266;SDS011;10791;53.108;18.326;2022-09-01T18:17:46;2.87;;;1.47;;
21266;SDS011;10791;53.108;18.326;2022-09-01T18:23:02;3.90;;;1.90;;
21266;SDS011;10791;53.108;18.326;2022-09-01T18:28:14;3.83;;;1.97;;
21266;SDS011;10791;53.108;18.326;2022-09-01T18:33:28;6.83;;;1.93;;
21266;SDS011;10791;53.108;18.326;2022-09-01T18:38:45;8.57;;;2.20;;
21266;SDS011;10791;53.108;18.326;2022-09-01T18:44:17;2.90;;;1.60;;
21266;SDS011;10791;53.108;18.326;2022-09-01T19:00:42;7.20;;;2.13;;
21266;SDS011;10791;53.108;18.326;2022-09-01T19:21:59;10.07;;;4.07;;
21266;SDS011;10791;53.108;18.326;2022-09-01T19:27:09;11.93;;;5.47;;
21266;SDS011;10791;53.108;18.326;2022-09-01T19:32:21;10.07;;;5.63;;
21266;SDS011;10791;53.108;18.326;2022-09-01T19:37:27;12.07;;;5.60;;
21266;SDS011;10791;53.108;18.326;2022-09-01T19:47:48;9.47;;;5.53;;
21266;SDS011;10791;53.108;18.326;2022-09-01T19:53:06;11.93;;;6.20;;
21266;SDS011;10791;53.108;18.326;2022-09-01T19:58:22;10.03;;;6.53;;
21266;SDS011;10791;53.108;18.326;2022-09-01T20:03:32;6.87;;;4.50;;
21266;SDS011;10791;53.108;18.326;2022-09-01T20:08:41;6.27;;;3.90;;
21266;SDS011;10791;53.108;18.326;2022-09-01T20:19:13;6.07;;;3.37;;
21266;SDS011;10791;53.108;18.326;2022-09-01T20:24:30;7.93;;;2.47;;
21266;SDS011;10791;53.108;18.326;2022-09-01T20:29:42;10.30;;;5.07;;
21266;SDS011;10791;53.108;18.326;2022-09-01T20:34:53;6.27;;;2.90;;
21266;SDS011;10791;53.108;18.326;2022-09-01T20:40:17;6.60;;;3.10;;
21266;SDS011;10791;53.108;18.326;2022-09-01T20:45:28;6.83;;;2.90;;
21266;SDS011;10791;53.108;18.326;2022-09-01T20:50:36;11.97;;;4.13;;
21266;SDS011;10791;53.108;18.326;2022-09-01T20:56:01;5.60;;;2.90;;
21266;SDS011;10791;53.108;18.326;2022-09-01T21:17:19;9.80;;;3.70;;
21266;SDS011;10791;53.108;18.326;2022-09-01T21:22:26;7.47;;;3.10;;
21266;SDS011;10791;53.108;18.326;2022-09-01T21:27:33;6.87;;;3.80;;
21266;SDS011;10791;53.108;18.326;2022-09-01T21:32:42;5.77;;;3.10;;
21266;SDS011;10791;53.108;18.326;2022-09-01T21:37:45;7.10;;;3.00;;
21266;SDS011;10791;53.108;18.326;2022-09-01T21:42:50;6.40;;;3.20;;
21266;SDS011;10791;53.108;18.326;2022-09-01T21:47:58;5.33;;;3.30;;
21266;SDS011;10791;53.108;18.326;2022-09-01T21:53:02;6.53;;;3.43;;
21266;SDS011;10791;53.108;18.326;2022-09-01T21:58:06;7.97;;;3.17;;
21266;SDS011;10791;53.108;18.326;2022-09-01T22:03:11;6.67;;;2.80;;
21266;SDS011;10791;53.108;18.326;2022-09-01T22:08:15;4.47;;;2.20;;
21266;SDS011;10791;53.108;18.326;2022-09-01T22:13:20;4.70;;;2.40;;
21266;SDS011;10791;53.108;18.326;2022-09-01T22:18:25;7.33;;;2.73;;
21266;SDS011;10791;53.108;18.326;2022-09-01T22:23:28;5.13;;;2.33;;
21266;SDS011;10791;53.108;18.326;2022-09-01T22:28:32;4.07;;;2.17;;
21266;SDS011;10791;53.108;18.326;2022-09-01T22:33:36;4.27;;;2.33;;
21266;SDS011;10791;53.108;18.326;2022-09-01T22:38:39;5.03;;;2.20;;
21266;SDS011;10791;53.108;18.326;2022-09-01T22:43:43;5.70;;;2.50;;
21266;SDS011;10791;53.108;18.326;2022-09-01T22:48:46;4.93;;;2.40;;
21266;SDS011;10791;53.108;18.326;2022-09-01T22:53:51;6.57;;;2.73;;
21266;SDS011;10791;53.108;18.326;2022-09-01T22:58:57;8.13;;;3.17;;
21266;SDS011;10791;53.108;18.326;2022-09-01T23:04:05;6.27;;;3.43;;
21266;SDS011;10791;53.108;18.326;2022-09-01T23:09:10;5.43;;;2.53;;
21266;SDS011;10791;53.108;18.326;2022-09-01T23:14:14;5.00;;;2.47;;
21266;SDS011;10791;53.108;18.326;2022-09-01T23:19:20;4.90;;;2.80;;
21266;SDS011;10791;53.108;18.326;2022-09-01T23:24:25;3.97;;;2.13;;
21266;SDS011;10791;53.108;18.326;2022-09-01T23:29:28;4.83;;;2.30;;
21266;SDS011;10791;53.108;18.326;2022-09-01T23:34:31;6.53;;;2.93;;
21266;SDS011;10791;53.108;18.326;2022-09-01T23:39:35;5.37;;;2.77;;
21266;SDS011;10791;53.108;18.326;2022-09-01T23:44:39;4.03;;;2.10;;
21266;SDS011;10791;53.108;18.326;2022-09-01T23:49:43;4.17;;;2.30;;
21266;SDS011;10791;53.108;18.326;2022-09-01T23:54:46;10.03;;;2.60;;
21266;SDS011;10791;53.108;18.326;2022-09-01T23:59:50;6.40;;;2.47;;
